Amherst Junction, Wisconsin
Current Conditions -  °F | °C
As of 6:35 AM on Tuesday 21 Oct 2014 (Local Time) from KSTE Reporting Station
Overcast Overcast  
Wind Chill: 37°   Ceiling: 2000
Heat Index: 37°   Visibility: 10mi
Dew Point: 34°   Wind: 3mph
Humidity: 90%   Direction: 40°NE
Pressure: 30.17"   Gusts: NA
Location:  44.47°N, 89.31°W
Report Text: KSTE 211135Z AUTO 04003KT 10SM OVC020 03/01 A3017 RMK AO2 T00250010
Loading
Personal Weather Stations






























Interactive Weather Map
Tropical Storm Tracking
New forecast layout! Learn more

10-Day Weather Forecast

Advertisements
Track Severe Weather on mobile